Time;durP1;ratioP1;P1;durP2;ratioP2;P2;SDS_P1;SDS_P2;PMS_P1;PMS_P2;Temp;Humidity;BMP_temperature;BMP_pressure;BME280_temperature;BME280_humidity;BME280_pressure;Samples;Min_cycle;Max_cycle;Signal;HPM_P1;HPM_P2
2021/08/08 00:00:04;;;;;;;1.90;0.63;;;;;;;13.81;100.00;96225.59;5020879;28;20072;-64
2021/08/08 00:02:31;;;;;;;2.20;0.80;;;;;;;13.90;100.00;96230.63;5028882;28;20037;-63
2021/08/08 00:04:56;;;;;;;1.55;0.50;;;;;;;13.93;100.00;96238.88;5023757;28;20038;-63
2021/08/08 00:07:21;;;;;;;1.33;0.50;;;;;;;13.93;100.00;96240.84;5019780;28;20246;-63
2021/08/08 00:09:47;;;;;;;2.28;0.75;;;;;;;13.93;100.00;96240.84;5019294;28;20046;-64
2021/08/08 00:12:12;;;;;;;0.60;0.60;;;;;;;13.88;100.00;96244.03;5027413;28;20049;-64
2021/08/08 00:14:38;;;;;;;1.98;0.50;;;;;;;13.88;100.00;96244.03;4999745;28;20067;-64
2021/08/08 00:17:04;;;;;;;5.28;0.73;;;;;;;14.06;100.00;96249.44;5007476;28;20051;-62
2021/08/08 00:19:32;;;;;;;1.05;0.52;;;;;;;14.13;100.00;96241.97;5020918;28;20069;-63
2021/08/08 00:21:57;;;;;;;3.10;0.60;;;;;;;14.14;100.00;96242.75;5023426;28;20132;-64
2021/08/08 00:24:22;;;;;;;0.85;0.50;;;;;;;14.03;100.00;96248.28;5017492;28;20144;-64
2021/08/08 00:26:48;;;;;;;5.70;1.23;;;;;;;14.04;100.00;96252.59;5023281;28;20129;-64
2021/08/08 00:29:13;;;;;;;0.80;0.50;;;;;;;14.25;100.00;96250.94;5024459;28;20037;-63
2021/08/08 00:31:39;;;;;;;0.70;0.50;;;;;;;14.43;100.00;96248.88;5042801;28;20494;-63
2021/08/08 00:34:04;;;;;;;1.60;0.75;;;;;;;14.58;100.00;96246.06;5039130;28;20843;-64
2021/08/08 00:36:30;;;;;;;1.02;0.50;;;;;;;14.69;100.00;96252.28;5041981;28;20056;-64
2021/08/08 00:38:58;;;;;;;0.68;0.45;;;;;;;14.75;100.00;96245.16;5041477;28;20045;-64
2021/08/08 00:41:23;;;;;;;1.95;0.68;;;;;;;14.83;99.86;96245.88;5035543;28;20804;-64
2021/08/08 00:43:49;;;;;;;2.60;0.57;;;;;;;14.85;99.79;96252.53;5059425;28;20045;-64
2021/08/08 00:46:15;;;;;;;1.00;0.50;;;;;;;14.84;99.71;96252.97;5049328;28;20056;-64
2021/08/08 00:48:40;;;;;;;2.45;0.57;;;;;;;14.66;100.00;96258.59;5047378;28;20190;-64
2021/08/08 00:51:06;;;;;;;2.10;0.50;;;;;;;14.58;100.00;96268.09;5035673;28;20083;-64
2021/08/08 00:53:31;;;;;;;1.00;0.55;;;;;;;14.67;100.00;96263.69;5041937;28;20122;-64
2021/08/08 00:55:57;;;;;;;0.80;0.52;;;;;;;14.65;100.00;96270.81;5025928;28;20439;-64
2021/08/08 00:58:22;;;;;;;2.95;0.50;;;;;;;14.73;100.00;96266.84;5017265;28;20603;-64
2021/08/08 01:00:51;;;;;;;0.70;0.50;;;;;;;14.86;99.83;96272.66;5039675;28;20041;-65
2021/08/08 01:03:17;;;;;;;0.95;0.60;;;;;;;14.93;100.00;96275.34;5022413;28;20126;-64
2021/08/08 01:05:49;;;;;;;1.08;0.70;;;;;;;14.99;99.58;96276.47;5019806;28;20037;-64
2021/08/08 01:08:28;;;;;;;1.10;0.47;;;;;;;15.10;97.64;96284.66;5007066;28;20045;-64
2021/08/08 01:10:54;;;;;;;1.25;0.70;;;;;;;15.20;96.46;96281.03;5021906;28;20047;-63
2021/08/08 01:13:20;;;;;;;4.68;0.40;;;;;;;15.13;97.55;96283.09;5013476;28;20042;-63
2021/08/08 01:15:48;;;;;;;3.20;0.57;;;;;;;14.97;99.89;96284.38;5017957;28;20442;-64
2021/08/08 01:18:15;;;;;;;1.98;0.55;;;;;;;14.86;100.00;96276.19;5016334;28;20110;-64
2021/08/08 01:20:42;;;;;;;0.57;0.32;;;;;;;15.10;98.26;96274.41;5021687;28;20111;-64
2021/08/08 01:23:09;;;;;;;0.47;0.40;;;;;;;15.28;96.03;96279.78;5008258;28;20077;-63
2021/08/08 01:25:35;;;;;;;3.28;0.40;;;;;;;15.14;98.02;96277.13;5020227;28;20045;-64
2021/08/08 01:28:01;;;;;;;1.25;0.57;;;;;;;14.98;99.73;96283.19;5018926;28;20044;-65
2021/08/08 01:30:27;;;;;;;0.50;0.40;;;;;;;14.83;100.00;96285.25;5009800;28;20045;-64
2021/08/08 01:33:06;;;;;;;0.80;0.50;;;;;;;15.01;99.36;96279.59;5018558;28;20509;-64
2021/08/08 01:35:32;;;;;;;2.40;0.33;;;;;;;15.00;100.00;96285.53;5012911;28;20241;-64
2021/08/08 01:37:58;;;;;;;1.33;0.40;;;;;;;14.89;100.00;96283.66;5011929;28;20458;-64
2021/08/08 01:40:32;;;;;;;2.35;0.60;;;;;;;14.81;100.00;96279.38;5011728;28;20057;-64
2021/08/08 01:42:58;;;;;;;4.00;0.50;;;;;;;14.88;99.70;96284.81;5019601;28;20045;-64
2021/08/08 01:45:25;;;;;;;1.35;0.60;;;;;;;15.10;96.93;96293.72;5016732;28;20996;-64
2021/08/08 01:47:54;;;;;;;4.78;0.50;;;;;;;15.01;97.94;96282.34;5016200;28;20053;-64
2021/08/08 01:50:21;;;;;;;2.63;0.50;;;;;;;14.90;99.41;96284.44;5008684;28;20045;-65
2021/08/08 01:52:47;;;;;;;2.38;0.90;;;;;;;14.79;99.17;96281.75;5032136;28;20045;-64
2021/08/08 01:55:15;;;;;;;1.27;0.63;;;;;;;14.76;99.34;96279.78;5030953;28;20044;-64
2021/08/08 01:57:41;;;;;;;1.90;0.60;;;;;;;14.66;99.53;96281.44;5021254;28;20045;-65
2021/08/08 02:00:07;;;;;;;1.65;0.55;;;;;;;14.68;97.37;96279.06;5016090;28;20045;-65
2021/08/08 02:02:33;;;;;;;1.25;0.60;;;;;;;14.72;97.79;96277.06;5021273;28;20044;-64
2021/08/08 02:04:58;;;;;;;10.98;1.95;;;;;;;14.59;97.96;96289.75;5021354;28;20037;-63
2021/08/08 02:07:24;;;;;;;4.05;0.60;;;;;;;14.51;99.12;96293.69;5009810;28;20137;-64
2021/08/08 02:09:49;;;;;;;1.13;0.60;;;;;;;14.49;98.40;96293.31;5018042;28;20115;-63
2021/08/08 02:12:15;;;;;;;1.70;0.60;;;;;;;14.43;99.52;96298.47;5015278;28;20041;-63
2021/08/08 02:14:40;;;;;;;1.85;0.70;;;;;;;14.40;100.00;96293.75;5017144;28;20073;-63
2021/08/08 02:17:07;;;;;;;2.60;0.60;;;;;;;14.44;99.17;96297.28;5015515;28;20465;-62
2021/08/08 02:19:33;;;;;;;1.42;0.70;;;;;;;14.54;97.85;96287.38;5019353;28;20049;-64
2021/08/08 02:21:59;;;;;;;1.30;0.68;;;;;;;14.44;98.61;96289.03;5018839;28;20095;-65
2021/08/08 02:24:25;;;;;;;5.15;0.80;;;;;;;14.36;99.92;96294.97;5003550;28;20803;-63
2021/08/08 02:26:51;;;;;;;1.23;0.60;;;;;;;14.28;99.87;96299.75;5012242;28;20046;-63
2021/08/08 02:29:16;;;;;;;1.85;0.60;;;;;;;14.21;100.00;96300.53;5002453;28;20545;-63
2021/08/08 02:31:44;;;;;;;1.20;0.60;;;;;;;14.18;100.00;96301.34;5019678;28;20046;-63
2021/08/08 02:34:12;;;;;;;1.65;0.60;;;;;;;14.21;100.00;96294.25;5012457;28;20498;-63
2021/08/08 02:36:38;;;;;;;2.10;0.80;;;;;;;14.12;100.00;96308.44;5019587;28;20091;-65
2021/08/08 02:39:04;;;;;;;1.65;0.85;;;;;;;14.10;100.00;96302.56;5012338;28;20073;-64
2021/08/08 02:41:29;;;;;;;2.35;0.70;;;;;;;14.00;100.00;96308.88;5018958;28;20079;-64
2021/08/08 02:43:55;;;;;;;2.70;0.82;;;;;;;13.91;100.00;96306.56;5018856;28;20103;-68
2021/08/08 02:46:21;;;;;;;2.88;0.60;;;;;;;13.88;100.00;96310.91;5015400;28;20041;-64
2021/08/08 02:48:47;;;;;;;1.50;0.68;;;;;;;13.85;100.00;96308.16;5025009;28;20124;-63
2021/08/08 02:51:12;;;;;;;2.78;0.82;;;;;;;13.76;100.00;96308.56;5014683;28;20057;-64
2021/08/08 02:53:37;;;;;;;2.30;0.70;;;;;;;13.70;100.00;96312.88;5011001;28;20107;-64
2021/08/08 02:56:03;;;;;;;1.13;0.70;;;;;;;13.67;100.00;96314.47;5016597;28;20099;-64
2021/08/08 02:58:29;;;;;;;2.33;0.80;;;;;;;13.68;100.00;96318.00;5019539;28;20104;-64
2021/08/08 03:00:54;;;;;;;2.10;0.80;;;;;;;13.66;100.00;96323.91;5011041;28;20103;-64
2021/08/08 03:03:19;;;;;;;3.47;0.90;;;;;;;13.67;100.00;96331.00;5023746;28;20037;-65
2021/08/08 03:05:45;;;;;;;1.73;0.93;;;;;;;13.74;100.00;96328.22;5016636;28;20042;-63
2021/08/08 03:08:10;;;;;;;3.22;0.90;;;;;;;13.84;100.00;96334.88;5012474;28;20131;-64
2021/08/08 03:10:36;;;;;;;0.90;0.60;;;;;;;13.92;100.00;96327.41;5020758;28;20053;-66
2021/08/08 03:13:01;;;;;;;1.92;0.70;;;;;;;14.18;100.00;96344.63;5019608;28;20439;-65
2021/08/08 03:15:26;;;;;;;2.63;0.80;;;;;;;14.22;100.00;96348.91;5014255;28;20052;-64
2021/08/08 03:17:52;;;;;;;1.90;0.80;;;;;;;14.33;99.01;96346.13;5018613;28;20050;-64
2021/08/08 03:20:20;;;;;;;2.97;1.00;;;;;;;14.38;99.04;96344.94;5013067;28;20049;-65
2021/08/08 03:22:46;;;;;;;1.70;0.90;;;;;;;14.42;98.20;96351.22;5009762;28;20041;-65
2021/08/08 03:25:11;;;;;;;2.00;0.60;;;;;;;14.39;98.85;96349.28;5004171;28;20041;-65
2021/08/08 03:27:37;;;;;;;1.08;0.70;;;;;;;14.31;100.00;96351.25;5019410;28;20096;-64
2021/08/08 03:30:03;;;;;;;1.77;0.70;;;;;;;14.32;99.66;96358.34;5011728;28;20410;-64
2021/08/08 03:32:29;;;;;;;2.03;0.80;;;;;;;14.19;100.00;96365.47;5019539;28;20061;-64
2021/08/08 03:34:54;;;;;;;2.47;0.77;;;;;;;14.21;100.00;96361.13;5021259;28;20041;-64
2021/08/08 03:37:19;;;;;;;3.70;0.90;;;;;;;14.15;100.00;96365.47;5029373;28;20053;-64
2021/08/08 03:39:45;;;;;;;2.05;0.95;;;;;;;14.00;100.00;96367.47;5019643;28;20395;-65
2021/08/08 03:42:10;;;;;;;2.55;0.70;;;;;;;14.03;100.00;96369.44;5013656;28;20041;-65
2021/08/08 03:44:36;;;;;;;1.98;1.05;;;;;;;14.22;100.00;96368.19;5010048;28;20048;-65
2021/08/08 03:47:01;;;;;;;0.82;0.60;;;;;;;14.17;100.00;96374.16;5017717;28;20048;-65
2021/08/08 03:49:27;;;;;;;1.25;0.73;;;;;;;14.17;100.00;96368.63;5013964;28;20050;-65
2021/08/08 03:51:52;;;;;;;2.95;0.88;;;;;;;14.09;100.00;96372.59;5010472;28;20042;-64
2021/08/08 03:54:17;;;;;;;5.50;0.70;;;;;;;14.06;100.00;96368.66;5015379;28;20045;-63
2021/08/08 03:56:43;;;;;;;2.00;0.63;;;;;;;14.04;100.00;96371.00;5019276;28;20501;-65
2021/08/08 03:59:08;;;;;;;1.75;0.93;;;;;;;14.15;100.00;96366.28;5010696;28;20096;-64
2021/08/08 04:01:34;;;;;;;4.38;0.82;;;;;;;14.31;100.00;96363.06;5023376;28;20505;-65
2021/08/08 04:04:00;;;;;;;1.85;0.70;;;;;;;14.34;100.00;96375.25;5021940;28;20103;-65
2021/08/08 04:06:25;;;;;;;0.95;0.70;;;;;;;14.27;100.00;96375.28;5029311;28;20400;-65
2021/08/08 04:08:51;;;;;;;1.98;0.80;;;;;;;14.19;100.00;96384.75;5022251;28;20116;-65
2021/08/08 04:11:16;;;;;;;2.47;0.90;;;;;;;14.14;100.00;96386.72;5017686;28;20049;-66
2021/08/08 04:13:42;;;;;;;2.17;0.93;;;;;;;14.08;100.00;96393.03;5022883;28;20041;-64
2021/08/08 04:16:08;;;;;;;3.42;0.90;;;;;;;13.98;100.00;96394.63;5017859;28;20694;-64
2021/08/08 04:18:33;;;;;;;1.17;0.70;;;;;;;13.91;100.00;96394.66;5021911;28;20457;-63
2021/08/08 04:20:59;;;;;;;1.60;0.95;;;;;;;13.82;100.00;96394.28;5017448;28;20399;-63
2021/08/08 04:23:25;;;;;;;2.05;1.00;;;;;;;13.70;100.00;96395.44;5010388;28;20060;-64
2021/08/08 04:25:50;;;;;;;8.50;1.25;;;;;;;13.66;100.00;96394.66;5014240;28;20064;-64
2021/08/08 04:28:16;;;;;;;0.98;0.63;;;;;;;13.49;100.00;96386.03;5016253;28;20422;-64
2021/08/08 04:30:41;;;;;;;2.47;1.05;;;;;;;13.52;100.00;96387.19;5019574;28;20077;-64
2021/08/08 04:33:06;;;;;;;2.55;1.00;;;;;;;13.63;100.00;96395.44;5024551;28;20111;-64
2021/08/08 04:35:33;;;;;;;1.20;0.70;;;;;;;13.58;100.00;96400.19;5022717;28;20495;-64
2021/08/08 04:38:00;;;;;;;1.40;0.90;;;;;;;13.39;100.00;96400.56;5022398;28;20045;-64
2021/08/08 04:40:26;;;;;;;2.28;1.20;;;;;;;13.38;100.00;96408.03;5015928;28;20049;-64
2021/08/08 04:42:52;;;;;;;1.90;1.00;;;;;;;13.50;100.00;96400.56;5020418;28;20043;-64
2021/08/08 04:45:20;;;;;;;1.98;0.95;;;;;;;13.66;100.00;96397.44;5007144;28;20364;-64
2021/08/08 04:47:45;;;;;;;3.58;0.60;;;;;;;13.77;100.00;96396.25;5024145;28;20045;-64
2021/08/08 04:50:11;;;;;;;1.50;0.75;;;;;;;13.85;100.00;96402.53;5014733;28;20835;-64
2021/08/08 04:52:38;;;;;;;2.45;0.98;;;;;;;13.98;100.00;96407.63;5022005;28;20136;-64
2021/08/08 04:55:05;;;;;;;2.95;1.00;;;;;;;13.91;100.00;96402.91;5018620;28;20042;-64
2021/08/08 04:57:30;;;;;;;4.18;0.98;;;;;;;14.00;100.00;96405.25;5022807;28;20068;-65
2021/08/08 04:59:56;;;;;;;2.97;0.90;;;;;;;14.05;100.00;96411.13;5013636;28;20069;-65
2021/08/08 05:02:21;;;;;;;6.65;0.68;;;;;;;14.17;100.00;96409.13;5017242;28;20847;-65
2021/08/08 05:04:47;;;;;;;3.42;1.05;;;;;;;14.26;100.00;96404.81;5017932;28;20041;-65
2021/08/08 05:07:12;;;;;;;1.70;0.77;;;;;;;14.25;100.00;96405.97;5014657;28;20103;-65
2021/08/08 05:09:38;;;;;;;5.10;0.90;;;;;;;14.28;100.00;96413.44;5021725;28;20050;-65
2021/08/08 05:12:04;;;;;;;3.60;0.70;;;;;;;14.44;100.00;96410.25;5019505;28;20045;-64
2021/08/08 05:14:29;;;;;;;0.95;0.65;;;;;;;14.58;100.00;96414.16;5013230;28;20140;-65
2021/08/08 05:16:55;;;;;;;2.10;0.80;;;;;;;14.56;100.00;96414.53;5020780;28;20045;-65
2021/08/08 05:19:21;;;;;;;1.75;0.60;;;;;;;14.72;100.00;96412.13;5024529;28;20105;-65
2021/08/08 05:21:46;;;;;;;2.90;0.70;;;;;;;14.83;100.00;96414.81;5024799;28;20041;-63
2021/08/08 05:24:12;;;;;;;3.47;0.77;;;;;;;14.86;100.00;96416.00;5016894;28;20041;-63
2021/08/08 05:26:37;;;;;;;1.33;0.75;;;;;;;14.83;100.00;96408.53;5032902;28;20412;-63
2021/08/08 05:29:03;;;;;;;1.42;0.52;;;;;;;14.81;100.00;96397.13;5012491;28;20428;-63
2021/08/08 05:31:29;;;;;;;3.22;0.80;;;;;;;15.01;100.00;96400.94;5018540;28;20053;-64
2021/08/08 05:33:54;;;;;;;0.70;0.52;;;;;;;15.20;100.00;96407.16;5019976;28;20071;-64
2021/08/08 05:36:19;;;;;;;1.58;0.70;;;;;;;15.28;100.00;96403.91;5005397;28;20132;-63
2021/08/08 05:38:45;;;;;;;3.65;0.80;;;;;;;15.28;100.00;96401.16;5017360;28;20145;-63
2021/08/08 05:41:12;;;;;;;4.32;0.70;;;;;;;15.20;100.00;96404.41;5016939;28;20113;-64
2021/08/08 05:43:37;;;;;;;1.67;0.80;;;;;;;15.26;100.00;96405.53;5016246;28;20065;-63
2021/08/08 05:46:03;;;;;;;0.95;0.55;;;;;;;15.33;100.00;96413.75;5017461;28;20474;-62
2021/08/08 05:48:28;;;;;;;1.83;0.60;;;;;;;15.44;100.00;96422.72;5018231;28;20045;-63
2021/08/08 05:50:54;;;;;;;1.88;0.70;;;;;;;15.55;100.00;96419.13;5021131;28;20099;-65
2021/08/08 05:53:19;;;;;;;2.95;1.17;;;;;;;15.55;99.54;96422.66;5015323;28;20505;-64
2021/08/08 05:55:46;;;;;;;1.13;0.60;;;;;;;15.59;99.21;96420.69;5021041;28;20136;-65
2021/08/08 05:58:15;;;;;;;2.22;0.90;;;;;;;15.66;98.01;96419.81;5012922;28;20046;-66
2021/08/08 06:00:41;;;;;;;4.13;0.68;;;;;;;15.66;97.43;96422.56;5012193;28;20090;-64
2021/08/08 06:03:09;;;;;;;1.45;0.60;;;;;;;15.67;97.61;96429.69;5002813;28;20125;-64
2021/08/08 06:05:35;;;;;;;7.80;1.27;;;;;;;15.75;97.96;96433.97;5011878;28;20048;-64
2021/08/08 06:08:00;;;;;;;1.15;0.70;;;;;;;15.82;97.95;96433.91;5036418;28;20049;-63
2021/08/08 06:10:26;;;;;;;2.58;0.80;;;;;;;15.97;97.41;96428.25;5015112;28;20045;-64
2021/08/08 06:12:52;;;;;;;2.08;0.60;;;;;;;16.09;96.39;96424.97;5016604;28;20140;-62
2021/08/08 06:15:17;;;;;;;4.82;0.68;;;;;;;16.13;95.39;96427.72;5015076;28;20034;-63
2021/08/08 06:17:43;;;;;;;0.77;0.43;;;;;;;16.18;95.58;96430.03;5011584;28;20048;-63
2021/08/08 06:20:09;;;;;;;0.60;0.50;;;;;;;16.17;95.83;96433.97;4995116;28;20101;-64
2021/08/08 06:22:35;;;;;;;11.43;1.27;;;;;;;16.29;95.43;96430.69;5019801;28;20049;-65
2021/08/08 06:25:01;;;;;;;2.20;0.60;;;;;;;16.31;94.26;96428.31;5014925;28;20049;-65
2021/08/08 06:27:26;;;;;;;3.20;0.70;;;;;;;16.38;94.50;96430.22;5015127;28;20108;-64
2021/08/08 06:29:52;;;;;;;1.02;0.50;;;;;;;16.66;92.60;96425.56;5013731;28;20048;-65
2021/08/08 06:32:17;;;;;;;1.63;0.50;;;;;;;16.98;89.69;96431.50;5010793;28;20398;-65
2021/08/08 06:34:43;;;;;;;1.35;0.60;;;;;;;17.36;84.19;96425.84;5023043;28;20037;-64
2021/08/08 06:37:09;;;;;;;3.13;0.50;;;;;;;17.55;83.11;96426.34;5022097;28;20041;-64
2021/08/08 06:39:35;;;;;;;1.20;0.50;;;;;;;18.06;79.68;96432.66;5019374;28;20042;-65
2021/08/08 06:42:01;;;;;;;2.45;0.65;;;;;;;18.45;79.54;96433.94;5018807;28;20045;-65
2021/08/08 06:44:28;;;;;;;2.85;0.70;;;;;;;18.91;74.46;96440.59;5008716;28;20424;-64
2021/08/08 06:46:54;;;;;;;1.95;0.50;;;;;;;19.25;72.33;96447.03;5020698;28;20423;-64
2021/08/08 06:49:20;;;;;;;2.42;0.35;;;;;;;19.32;72.39;96441.31;5016506;28;20053;-64
2021/08/08 06:51:45;;;;;;;2.67;0.95;;;;;;;19.30;71.75;96452.03;5021491;28;20044;-64
2021/08/08 06:54:12;;;;;;;1.13;0.52;;;;;;;18.81;73.93;96452.69;5010111;28;20041;-63
2021/08/08 06:56:38;;;;;;;1.58;0.60;;;;;;;18.71;71.81;96456.44;5010276;28;20076;-64
2021/08/08 06:59:03;;;;;;;4.63;0.63;;;;;;;18.64;73.17;96457.34;5010502;28;20084;-63
2021/08/08 07:01:29;;;;;;;1.38;0.50;;;;;;;18.50;74.08;96455.63;5018571;28;20053;-64
2021/08/08 07:03:54;;;;;;;3.67;0.98;;;;;;;18.50;74.73;96455.63;5020348;28;20385;-64
2021/08/08 07:06:19;;;;;;;3.95;0.77;;;;;;;18.45;75.08;96458.09;5013933;28;20107;-64
2021/08/08 07:08:45;;;;;;;3.42;0.70;;;;;;;18.32;76.84;96463.50;5020644;28;20099;-64
2021/08/08 07:11:10;;;;;;;5.78;0.70;;;;;;;18.05;77.08;96455.25;5015399;28;20132;-64
2021/08/08 07:13:40;;;;;;;2.33;0.65;;;;;;;17.84;77.43;96462.69;5013198;28;20080;-63
2021/08/08 07:16:06;;;;;;;13.20;7.38;;;;;;;17.66;80.43;96457.41;5012016;28;20037;-63
2021/08/08 07:18:31;;;;;;;4.55;1.40;;;;;;;17.49;81.07;96462.03;5018477;28;20498;-64
2021/08/08 07:20:57;;;;;;;2.30;1.05;;;;;;;17.46;82.48;96462.88;5034453;28;20099;-65
2021/08/08 07:23:22;;;;;;;5.35;1.25;;;;;;;17.46;81.33;96464.84;5011701;28;20636;-64
2021/08/08 07:25:48;;;;;;;2.58;0.80;;;;;;;17.44;81.04;96464.50;5013961;28;20517;-64
2021/08/08 07:28:13;;;;;;;8.10;1.40;;;;;;;17.58;80.48;96464.28;5013432;28;20107;-64
2021/08/08 07:30:38;;;;;;;2.25;0.80;;;;;;;17.95;79.19;96465.31;5032297;28;20064;-64
2021/08/08 07:33:04;;;;;;;2.83;0.95;;;;;;;18.23;78.89;96463.25;5020383;28;20037;-64
2021/08/08 07:35:29;;;;;;;2.08;0.50;;;;;;;18.38;74.91;96464.56;5028237;28;20072;-69
2021/08/08 07:37:55;;;;;;;5.82;1.00;;;;;;;18.63;72.51;96464.09;5032811;28;20141;-65
2021/08/08 07:40:20;;;;;;;2.67;0.50;;;;;;;19.04;70.03;96462.91;5019561;28;20492;-65
2021/08/08 07:42:50;;;;;;;3.33;0.70;;;;;;;19.32;68.89;96466.31;5022847;28;20092;-65
2021/08/08 07:45:16;;;;;;;2.47;0.70;;;;;;;19.14;70.00;96474.22;5010221;28;20041;-65
2021/08/08 07:47:42;;;;;;;2.65;0.60;;;;;;;18.99;69.56;96471.75;5023073;28;20106;-65
2021/08/08 07:50:08;;;;;;;5.65;1.10;;;;;;;18.75;71.53;96468.25;5008686;28;20046;-65
2021/08/08 07:52:35;;;;;;;5.03;0.60;;;;;;;18.69;70.18;96476.28;5022682;28;20053;-64
2021/08/08 07:55:01;;;;;;;4.25;0.65;;;;;;;18.82;71.61;96472.91;5037804;28;20365;-64
2021/08/08 07:57:26;;;;;;;3.83;0.85;;;;;;;18.94;68.22;96486.09;5018222;28;20049;-63
2021/08/08 07:59:51;;;;;;;6.05;2.20;;;;;;;18.61;68.86;96485.16;5023014;28;20098;-63
2021/08/08 08:02:17;;;;;;;8.52;2.13;;;;;;;18.34;68.58;96488.81;5018937;28;20137;-62
2021/08/08 08:04:43;;;;;;;2.22;0.75;;;;;;;18.15;70.83;96493.09;5023493;28;20064;-63
2021/08/08 08:07:09;;;;;;;6.97;0.90;;;;;;;17.97;72.58;96490.63;5016939;28;20038;-63
2021/08/08 08:09:34;;;;;;;2.63;0.73;;;;;;;18.13;73.21;96492.72;5020600;28;20045;-63
2021/08/08 08:12:00;;;;;;;2.70;0.85;;;;;;;17.91;74.23;96495.84;5019994;28;20046;-64
2021/08/08 08:14:25;;;;;;;2.05;0.77;;;;;;;17.77;73.78;96501.56;5016155;28;20156;-63
2021/08/08 08:16:51;;;;;;;6.80;0.80;;;;;;;17.70;75.80;96496.94;5022854;28;20052;-62
2021/08/08 08:19:16;;;;;;;3.42;1.17;;;;;;;17.69;75.35;96506.44;5017819;28;20124;-63
2021/08/08 08:21:41;;;;;;;4.97;0.98;;;;;;;17.62;75.68;96514.84;5038212;28;20553;-64
2021/08/08 08:24:07;;;;;;;3.17;1.17;;;;;;;17.68;76.85;96515.16;5020679;28;20042;-64
2021/08/08 08:26:33;;;;;;;6.63;0.98;;;;;;;17.70;77.21;96523.84;5030750;28;20109;-64
2021/08/08 08:28:58;;;;;;;6.15;1.10;;;;;;;17.77;77.02;96515.41;5022069;28;20393;-64
2021/08/08 08:31:24;;;;;;;2.97;0.70;;;;;;;17.85;75.82;96524.44;5017906;28;20045;-62
2021/08/08 08:33:49;;;;;;;6.60;0.88;;;;;;;17.54;77.41;96524.47;5021455;28;20049;-63
2021/08/08 08:36:15;;;;;;;5.00;1.20;;;;;;;17.57;76.45;96529.16;5018287;28;20072;-63
2021/08/08 08:38:40;;;;;;;3.33;0.90;;;;;;;17.62;77.24;96528.69;5021990;28;20049;-64
2021/08/08 08:41:07;;;;;;;1.58;0.63;;;;;;;17.39;78.56;96530.22;5018130;28;20037;-63
2021/08/08 08:43:33;;;;;;;3.35;0.80;;;;;;;17.44;78.90;96526.19;5019789;28;20045;-64
2021/08/08 08:46:01;;;;;;;3.15;0.60;;;;;;;17.51;78.69;96536.38;5018475;28;20517;-65
2021/08/08 08:48:30;;;;;;;7.18;0.90;;;;;;;17.66;77.45;96531.41;5018056;28;20115;-64
2021/08/08 08:50:57;;;;;;;4.75;1.10;;;;;;;18.19;75.86;96540.16;5020381;28;20182;-62
2021/08/08 08:53:23;;;;;;;2.45;0.80;;;;;;;18.17;75.24;96537.81;5013643;28;20628;-65
2021/08/08 08:55:50;;;;;;;2.50;0.73;;;;;;;17.94;74.83;96538.56;5021849;28;20073;-63
2021/08/08 08:58:17;;;;;;;2.75;0.88;;;;;;;18.10;74.96;96540.69;5013106;28;20041;-63
2021/08/08 09:00:42;;;;;;;3.00;1.08;;;;;;;18.00;76.38;96538.88;5021882;28;20052;-63
2021/08/08 09:03:07;;;;;;;2.58;0.80;;;;;;;17.75;75.28;96546.34;5014843;28;20132;-65
2021/08/08 09:05:33;;;;;;;4.65;1.23;;;;;;;17.83;74.71;96535.91;5031114;28;20385;-67
2021/08/08 09:07:59;;;;;;;1.85;0.80;;;;;;;17.88;73.18;96540.22;5034618;28;20458;-66
2021/08/08 09:10:24;;;;;;;2.53;0.65;;;;;;;18.13;70.96;96548.94;5020058;28;20049;-65
2021/08/08 09:12:58;;;;;;;2.28;0.70;;;;;;;18.18;70.60;96541.34;5037169;28;20072;-64
2021/08/08 09:15:53;;;;;;;6.00;0.93;;;;;;;18.02;70.54;96542.78;5015137;28;20045;-63
2021/08/08 09:18:21;;;;;;;7.70;0.82;;;;;;;18.43;69.69;96532.63;5010714;28;20041;-64
2021/08/08 09:20:48;;;;;;;4.50;0.80;;;;;;;18.86;69.11;96538.19;5019235;28;20092;-65
2021/08/08 09:23:15;;;;;;;3.90;1.10;;;;;;;18.69;68.69;96542.03;5015135;28;20041;-65
2021/08/08 09:25:55;;;;;;;3.88;0.80;;;;;;;18.47;67.58;96536.09;5021332;28;20187;-65
2021/08/08 09:28:28;;;;;;;4.03;1.67;;;;;;;18.23;68.67;96544.44;5014757;28;20533;-65
2021/08/08 09:30:54;;;;;;;2.90;1.30;;;;;;;18.23;68.00;96541.66;5022225;28;20049;-65
2021/08/08 09:33:20;;;;;;;4.63;1.30;;;;;;;18.53;68.88;96535.22;5015615;28;20098;-64
2021/08/08 09:35:49;;;;;;;2.17;0.80;;;;;;;18.91;65.98;96531.38;5020688;28;20048;-65
2021/08/08 09:38:14;;;;;;;4.65;1.45;;;;;;;18.76;65.51;96536.38;4998873;28;20081;-65
2021/08/08 09:40:42;;;;;;;5.05;1.20;;;;;;;18.89;65.72;96536.56;5021825;28;20064;-65
2021/08/08 09:43:09;;;;;;;6.68;1.15;;;;;;;18.69;66.96;96542.84;5016231;28;20065;-65
2021/08/08 09:45:39;;;;;;;5.70;0.70;;;;;;;19.24;65.33;96537.84;5021706;28;20127;-65
2021/08/08 09:48:05;;;;;;;3.10;1.13;;;;;;;19.20;65.39;96545.47;5031735;28;20049;-65
2021/08/08 09:50:33;;;;;;;6.28;1.00;;;;;;;19.00;64.40;96542.69;5013233;28;20111;-64
2021/08/08 09:53:01;;;;;;;4.65;0.93;;;;;;;18.91;64.38;96540.47;5035032;28;20049;-65
2021/08/08 09:55:29;;;;;;;5.38;1.10;;;;;;;18.98;64.26;96539.56;5016307;28;20041;-64
2021/08/08 09:57:55;;;;;;;4.18;0.70;;;;;;;19.22;61.51;96542.28;5019865;28;20131;-64
2021/08/08 10:00:40;;;;;;;4.40;1.08;;;;;;;19.07;63.60;96541.78;5016546;28;20060;-63
2021/08/08 10:03:14;;;;;;;4.45;1.00;;;;;;;19.62;61.29;96551.31;5015252;28;20045;-65
2021/08/08 10:05:42;;;;;;;1.70;0.60;;;;;;;19.56;61.57;96555.84;5014877;28;20045;-65
2021/08/08 10:08:11;;;;;;;3.45;0.80;;;;;;;19.01;64.89;96560.91;5016828;28;20037;-64
2021/08/08 10:10:39;;;;;;;3.60;0.98;;;;;;;18.95;63.23;96562.63;5019250;28;20046;-65
2021/08/08 10:13:07;;;;;;;7.95;1.15;;;;;;;18.90;65.52;96558.31;5012742;28;20057;-63
2021/08/08 10:15:36;;;;;;;4.65;0.88;;;;;;;19.10;63.55;96557.56;5036221;28;20184;-65
2021/08/08 10:18:02;;;;;;;5.17;0.97;;;;;;;18.72;64.03;96566.94;5019903;28;20037;-64
2021/08/08 10:20:31;;;;;;;5.90;1.15;;;;;;;18.57;65.91;96562.09;5017316;28;20390;-63
2021/08/08 10:22:57;;;;;;;3.80;1.00;;;;;;;18.61;67.20;96562.81;5022084;28;20048;-64
2021/08/08 10:25:22;;;;;;;3.47;0.70;;;;;;;18.59;66.55;96566.00;5014542;28;20620;-65
2021/08/08 10:27:48;;;;;;;6.20;0.90;;;;;;;18.97;64.21;96565.75;5021472;28;20041;-66
2021/08/08 10:30:14;;;;;;;2.05;0.90;;;;;;;19.07;63.38;96570.31;5010660;28;20045;-64
2021/08/08 10:32:40;;;;;;;3.90;1.10;;;;;;;19.44;61.75;96573.94;5020067;28;20041;-65
2021/08/08 10:35:12;;;;;;;4.00;0.90;;;;;;;19.56;62.65;96572.50;5015252;28;20115;-64
2021/08/08 10:37:39;;;;;;;7.07;2.20;;;;;;;19.51;62.09;96570.22;5020651;28;20069;-65
2021/08/08 10:40:05;;;;;;;3.65;1.10;;;;;;;19.70;61.74;96568.66;5015098;28;20499;-64
2021/08/08 10:42:44;;;;;;;2.58;0.80;;;;;;;19.84;61.12;96562.00;5019060;28;20045;-66
2021/08/08 10:45:31;;;;;;;7.80;1.35;;;;;;;19.73;62.28;96564.22;5030282;28;20510;-64
2021/08/08 10:48:03;;;;;;;5.25;1.10;;;;;;;19.45;61.10;96566.41;5018371;28;20103;-64
2021/08/08 10:50:37;;;;;;;3.40;0.90;;;;;;;19.40;61.49;96564.13;5016746;28;20085;-65
2021/08/08 10:53:02;;;;;;;3.47;0.90;;;;;;;19.57;61.64;96576.06;5017352;28;20052;-63
2021/08/08 10:55:30;;;;;;;9.55;0.80;;;;;;;19.64;61.25;96571.16;5015566;28;20045;-66
2021/08/08 10:57:56;;;;;;;3.45;0.88;;;;;;;19.50;62.41;96565.91;5017922;28;20046;-63
2021/08/08 11:00:33;;;;;;;3.92;0.90;;;;;;;19.40;60.92;96578.00;5013096;28;20216;-64
2021/08/08 11:03:17;;;;;;;8.02;1.63;;;;;;;19.43;61.13;96568.81;5018205;28;20049;-64
2021/08/08 11:05:44;;;;;;;10.63;2.83;;;;;;;18.80;63.30;96564.03;5018826;28;20076;-64
2021/08/08 11:08:11;;;;;;;4.55;1.45;;;;;;;19.10;63.45;96569.47;5014578;28;20052;-64
2021/08/08 11:10:46;;;;;;;2.75;0.90;;;;;;;19.59;61.42;96568.06;5018179;28;20788;-64
2021/08/08 11:13:26;;;;;;;1.80;0.70;;;;;;;19.53;59.25;96576.13;5006813;28;20053;-64
2021/08/08 11:15:52;;;;;;;2.55;0.77;;;;;;;19.62;59.70;96572.78;5021240;28;20121;-64
2021/08/08 11:18:29;;;;;;;7.28;0.80;;;;;;;19.72;59.31;96577.31;5014633;28;20064;-64
2021/08/08 11:20:55;;;;;;;2.67;0.60;;;;;;;19.70;58.33;96565.88;5020916;28;20049;-64
2021/08/08 11:23:30;;;;;;;2.38;0.80;;;;;;;19.20;60.36;96569.69;5004428;28;20053;-65
2021/08/08 11:25:57;;;;;;;1.85;0.60;;;;;;;19.55;57.43;96575.72;5016040;28;20510;-64